createdAt,value
2022-10-01T00:12:59.664Z,49.8
2022-10-01T00:28:34.343Z,49.7
2022-10-01T00:44:08.942Z,49.8
2022-10-01T00:59:43.629Z,49.7
2022-10-01T01:15:18.173Z,49.7
2022-10-01T01:30:53.024Z,49.7
2022-10-01T01:46:27.825Z,49.7
2022-10-01T02:02:03.545Z,49.7
2022-10-01T02:17:38.344Z,49.6
2022-10-01T02:33:12.931Z,49.7
2022-10-01T02:48:47.791Z,49.5
2022-10-01T03:04:22.337Z,49.5
2022-10-01T03:19:56.892Z,49.5
2022-10-01T03:35:31.495Z,49.5
2022-10-01T03:51:06.048Z,49.5
2022-10-01T04:06:40.619Z,49.6
2022-10-01T04:22:15.212Z,49.5
2022-10-01T04:37:49.521Z,49.5
2022-10-01T04:53:24.126Z,49.4
2022-10-01T05:08:59.135Z,49.3
2022-10-01T05:24:33.705Z,49.2
2022-10-01T05:40:08.522Z,49.3
2022-10-01T05:55:43.073Z,49.1
2022-10-01T06:11:17.632Z,49.3
2022-10-01T06:26:52.183Z,49.5
2022-10-01T06:42:26.825Z,49.6
2022-10-01T06:58:01.449Z,49.7
2022-10-01T07:13:36.015Z,49.6
2022-10-01T07:29:10.562Z,49.1
2022-10-01T07:44:45.192Z,48.7
2022-10-01T08:00:22.834Z,48.5
2022-10-01T08:15:57.503Z,48.2
2022-10-01T08:31:33.467Z,48.4
2022-10-01T08:47:08.744Z,48.4
2022-10-01T09:02:43.313Z,48.5
2022-10-01T09:18:18.022Z,48.5
2022-10-01T09:33:52.584Z,48.6
2022-10-01T09:49:27.163Z,48.8
2022-10-01T10:05:01.786Z,48.8
2022-10-01T10:20:36.700Z,48.9
2022-10-01T10:36:11.269Z,49.5
2022-10-01T10:51:45.982Z,49.8
2022-10-01T11:07:20.561Z,49.7
2022-10-01T11:22:55.154Z,49.6
2022-10-01T11:38:29.804Z,50.1
2022-10-01T11:54:04.567Z,50.3
2022-10-01T12:09:39.224Z,50.9
2022-10-01T12:25:13.830Z,51.5
2022-10-01T12:40:48.600Z,51.7
2022-10-01T12:56:23.168Z,51.9
2022-10-01T13:11:57.939Z,52
2022-10-01T13:27:32.742Z,52.1
2022-10-01T13:43:07.308Z,52.3
2022-10-01T13:58:42.004Z,52.3
2022-10-01T14:14:16.869Z,52.3
2022-10-01T14:29:51.524Z,52.4
2022-10-01T14:45:26.086Z,52.5
2022-10-01T15:01:00.652Z,52.5
2022-10-01T15:16:36.687Z,52.5
2022-10-01T15:32:12.193Z,52.4
2022-10-01T15:47:46.968Z,52.7
2022-10-01T16:03:21.824Z,53
2022-10-01T16:18:56.397Z,53.2
2022-10-01T16:34:30.973Z,53.2
2022-10-01T16:50:05.527Z,53
2022-10-01T17:05:40.118Z,53.1
2022-10-01T17:21:14.702Z,53.1
2022-10-01T17:36:49.273Z,53.1
2022-10-01T17:52:23.654Z,53.3
2022-10-01T18:07:58.239Z,53.7
2022-10-01T18:23:32.897Z,53.6
2022-10-01T18:39:07.862Z,53.7
2022-10-01T18:54:42.575Z,53.8
2022-10-01T19:10:17.159Z,53.7
2022-10-01T19:25:51.732Z,53.7
2022-10-01T19:41:26.394Z,53.7
2022-10-01T19:57:01.445Z,53.7
2022-10-01T20:12:36.010Z,53.5
2022-10-01T20:28:16.342Z,53.3
2022-10-01T20:43:51.207Z,53.4
2022-10-01T20:59:25.794Z,53.2
2022-10-01T21:15:00.564Z,53.1
2022-10-01T21:30:35.220Z,53.1
2022-10-01T21:46:10.200Z,53.1
2022-10-01T22:01:45.359Z,53.1
2022-10-01T22:17:20.098Z,53.7
2022-10-01T22:32:54.691Z,53.9
2022-10-01T22:48:29.270Z,54
2022-10-01T23:04:03.856Z,54
2022-10-01T23:19:38.457Z,53.9
2022-10-01T23:35:13.071Z,53.7
2022-10-01T23:50:47.659Z,53.6
